sensor_id;sensor_type;location;lat;lon;timestamp;P1;durP1;ratioP1;P2;durP2;ratioP2
55989;SDS011;41875;55.806;38.082;2022-10-17T00:00:36;14.25;;;6.05;;
55989;SDS011;41875;55.806;38.082;2022-10-17T00:03:04;11.80;;;6.05;;
55989;SDS011;41875;55.806;38.082;2022-10-17T00:05:33;15.27;;;6.22;;
55989;SDS011;41875;55.806;38.082;2022-10-17T00:08:06;12.70;;;6.22;;
55989;SDS011;41875;55.806;38.082;2022-10-17T00:10:35;14.10;;;6.18;;
55989;SDS011;41875;55.806;38.082;2022-10-17T00:13:04;17.05;;;6.10;;
55989;SDS011;41875;55.806;38.082;2022-10-17T00:15:32;13.48;;;5.60;;
55989;SDS011;41875;55.806;38.082;2022-10-17T00:18:03;12.88;;;5.57;;
55989;SDS011;41875;55.806;38.082;2022-10-17T00:20:33;11.98;;;6.03;;
55989;SDS011;41875;55.806;38.082;2022-10-17T00:23:01;13.57;;;6.72;;
55989;SDS011;41875;55.806;38.082;2022-10-17T00:25:30;15.55;;;6.57;;
55989;SDS011;41875;55.806;38.082;2022-10-17T00:27:58;16.42;;;6.45;;
55989;SDS011;41875;55.806;38.082;2022-10-17T00:30:27;17.15;;;7.07;;
55989;SDS011;41875;55.806;38.082;2022-10-17T00:32:55;16.85;;;6.45;;
55989;SDS011;41875;55.806;38.082;2022-10-17T00:35:25;14.13;;;6.32;;
55989;SDS011;41875;55.806;38.082;2022-10-17T00:37:54;14.23;;;6.60;;
55989;SDS011;41875;55.806;38.082;2022-10-17T00:40:22;18.73;;;6.05;;
55989;SDS011;41875;55.806;38.082;2022-10-17T00:42:51;10.88;;;5.78;;
55989;SDS011;41875;55.806;38.082;2022-10-17T00:45:20;12.30;;;6.25;;
55989;SDS011;41875;55.806;38.082;2022-10-17T00:47:51;15.60;;;7.00;;
55989;SDS011;41875;55.806;38.082;2022-10-17T00:50:29;15.57;;;6.68;;
55989;SDS011;41875;55.806;38.082;2022-10-17T00:52:59;14.35;;;6.25;;
55989;SDS011;41875;55.806;38.082;2022-10-17T00:55:32;14.35;;;6.22;;
55989;SDS011;41875;55.806;38.082;2022-10-17T00:58:05;17.08;;;7.25;;
55989;SDS011;41875;55.806;38.082;2022-10-17T01:00:34;16.45;;;6.72;;
55989;SDS011;41875;55.806;38.082;2022-10-17T01:03:03;17.40;;;7.32;;
55989;SDS011;41875;55.806;38.082;2022-10-17T01:05:33;14.48;;;7.07;;
55989;SDS011;41875;55.806;38.082;2022-10-17T01:08:04;17.75;;;7.18;;
55989;SDS011;41875;55.806;38.082;2022-10-17T01:10:36;20.52;;;7.13;;
55989;SDS011;41875;55.806;38.082;2022-10-17T01:13:12;16.02;;;6.93;;
55989;SDS011;41875;55.806;38.082;2022-10-17T01:15:50;19.65;;;7.05;;
55989;SDS011;41875;55.806;38.082;2022-10-17T01:18:31;18.13;;;7.53;;
55989;SDS011;41875;55.806;38.082;2022-10-17T01:21:19;14.75;;;7.25;;
55989;SDS011;41875;55.806;38.082;2022-10-17T01:24:09;13.80;;;6.68;;
55989;SDS011;41875;55.806;38.082;2022-10-17T01:27:10;14.57;;;7.40;;
55989;SDS011;41875;55.806;38.082;2022-10-17T01:33:01;14.80;;;7.05;;
55989;SDS011;41875;55.806;38.082;2022-10-17T01:35:37;13.43;;;6.05;;
55989;SDS011;41875;55.806;38.082;2022-10-17T01:38:09;15.27;;;6.70;;
55989;SDS011;41875;55.806;38.082;2022-10-17T01:40:41;16.83;;;6.85;;
55989;SDS011;41875;55.806;38.082;2022-10-17T01:43:17;12.27;;;6.65;;
55989;SDS011;41875;55.806;38.082;2022-10-17T01:45:51;15.02;;;6.50;;
55989;SDS011;41875;55.806;38.082;2022-10-17T01:48:27;16.20;;;6.93;;
55989;SDS011;41875;55.806;38.082;2022-10-17T01:51:02;13.38;;;6.00;;
55989;SDS011;41875;55.806;38.082;2022-10-17T01:53:37;15.18;;;6.32;;
55989;SDS011;41875;55.806;38.082;2022-10-17T01:56:12;12.40;;;5.97;;
55989;SDS011;41875;55.806;38.082;2022-10-17T01:58:43;14.75;;;6.80;;
55989;SDS011;41875;55.806;38.082;2022-10-17T02:01:16;13.07;;;6.93;;
55989;SDS011;41875;55.806;38.082;2022-10-17T02:03:51;15.88;;;6.78;;
55989;SDS011;41875;55.806;38.082;2022-10-17T02:06:21;14.13;;;7.43;;
55989;SDS011;41875;55.806;38.082;2022-10-17T02:08:51;17.70;;;7.55;;
55989;SDS011;41875;55.806;38.082;2022-10-17T02:11:20;16.10;;;7.38;;
55989;SDS011;41875;55.806;38.082;2022-10-17T02:14:02;13.18;;;7.00;;
55989;SDS011;41875;55.806;38.082;2022-10-17T02:16:41;14.15;;;7.32;;
55989;SDS011;41875;55.806;38.082;2022-10-17T02:22:20;15.25;;;7.32;;
55989;SDS011;41875;55.806;38.082;2022-10-17T02:24:58;17.55;;;7.32;;
55989;SDS011;41875;55.806;38.082;2022-10-17T02:27:34;13.13;;;6.68;;
55989;SDS011;41875;55.806;38.082;2022-10-17T02:30:11;14.70;;;7.50;;
55989;SDS011;41875;55.806;38.082;2022-10-17T02:32:48;13.73;;;7.20;;
55989;SDS011;41875;55.806;38.082;2022-10-17T02:35:24;14.38;;;6.28;;
55989;SDS011;41875;55.806;38.082;2022-10-17T02:37:57;15.88;;;6.78;;
55989;SDS011;41875;55.806;38.082;2022-10-17T02:40:28;13.77;;;6.60;;
55989;SDS011;41875;55.806;38.082;2022-10-17T02:42:58;17.95;;;7.05;;
55989;SDS011;41875;55.806;38.082;2022-10-17T02:45:29;14.45;;;6.40;;
55989;SDS011;41875;55.806;38.082;2022-10-17T02:48:04;13.57;;;6.75;;
55989;SDS011;41875;55.806;38.082;2022-10-17T02:50:40;14.32;;;7.30;;
55989;SDS011;41875;55.806;38.082;2022-10-17T02:53:16;11.10;;;6.03;;
55989;SDS011;41875;55.806;38.082;2022-10-17T02:55:52;14.13;;;6.88;;
55989;SDS011;41875;55.806;38.082;2022-10-17T02:58:25;16.38;;;7.00;;
55989;SDS011;41875;55.806;38.082;2022-10-17T03:01:00;13.52;;;5.95;;
55989;SDS011;41875;55.806;38.082;2022-10-17T03:03:29;16.95;;;7.05;;
55989;SDS011;41875;55.806;38.082;2022-10-17T03:06:01;16.05;;;6.55;;
55989;SDS011;41875;55.806;38.082;2022-10-17T03:08:32;15.20;;;6.38;;
55989;SDS011;41875;55.806;38.082;2022-10-17T03:11:01;14.32;;;6.45;;
55989;SDS011;41875;55.806;38.082;2022-10-17T03:13:30;13.15;;;5.57;;
55989;SDS011;41875;55.806;38.082;2022-10-17T03:16:04;12.82;;;6.60;;
55989;SDS011;41875;55.806;38.082;2022-10-17T03:18:33;15.90;;;6.28;;
55989;SDS011;41875;55.806;38.082;2022-10-17T03:21:06;13.13;;;6.20;;
55989;SDS011;41875;55.806;38.082;2022-10-17T03:23:35;12.45;;;6.22;;
55989;SDS011;41875;55.806;38.082;2022-10-17T03:26:06;12.85;;;5.97;;
55989;SDS011;41875;55.806;38.082;2022-10-17T03:28:35;15.68;;;6.07;;
55989;SDS011;41875;55.806;38.082;2022-10-17T03:31:07;14.75;;;7.75;;
55989;SDS011;41875;55.806;38.082;2022-10-17T03:33:37;13.02;;;6.35;;
55989;SDS011;41875;55.806;38.082;2022-10-17T03:36:08;13.48;;;6.45;;
55989;SDS011;41875;55.806;38.082;2022-10-17T03:38:38;14.23;;;6.47;;
55989;SDS011;41875;55.806;38.082;2022-10-17T03:41:07;13.65;;;6.45;;
55989;SDS011;41875;55.806;38.082;2022-10-17T03:43:37;14.90;;;6.70;;
55989;SDS011;41875;55.806;38.082;2022-10-17T03:46:07;18.30;;;6.95;;
55989;SDS011;41875;55.806;38.082;2022-10-17T03:48:36;13.90;;;6.45;;
55989;SDS011;41875;55.806;38.082;2022-10-17T03:51:07;14.63;;;6.47;;
55989;SDS011;41875;55.806;38.082;2022-10-17T03:53:46;13.45;;;6.15;;
55989;SDS011;41875;55.806;38.082;2022-10-17T03:56:15;13.52;;;6.82;;
55989;SDS011;41875;55.806;38.082;2022-10-17T03:58:52;14.20;;;6.97;;
55989;SDS011;41875;55.806;38.082;2022-10-17T04:01:21;13.40;;;6.32;;
55989;SDS011;41875;55.806;38.082;2022-10-17T04:03:52;15.23;;;6.88;;
55989;SDS011;41875;55.806;38.082;2022-10-17T04:06:25;13.00;;;6.07;;
55989;SDS011;41875;55.806;38.082;2022-10-17T04:08:53;10.75;;;5.25;;
55989;SDS011;41875;55.806;38.082;2022-10-17T04:11:31;14.13;;;5.70;;
55989;SDS011;41875;55.806;38.082;2022-10-17T04:14:01;9.88;;;4.95;;
55989;SDS011;41875;55.806;38.082;2022-10-17T04:16:30;13.18;;;5.50;;
55989;SDS011;41875;55.806;38.082;2022-10-17T04:19:03;11.15;;;5.68;;
55989;SDS011;41875;55.806;38.082;2022-10-17T04:21:39;14.55;;;5.57;;
55989;SDS011;41875;55.806;38.082;2022-10-17T04:24:09;12.45;;;6.55;;
55989;SDS011;41875;55.806;38.082;2022-10-17T04:26:53;17.33;;;6.35;;
55989;SDS011;41875;55.806;38.082;2022-10-17T04:29:26;13.23;;;6.15;;
55989;SDS011;41875;55.806;38.082;2022-10-17T04:32:24;11.73;;;5.70;;
55989;SDS011;41875;55.806;38.082;2022-10-17T04:35:03;15.65;;;6.43;;
55989;SDS011;41875;55.806;38.082;2022-10-17T04:37:33;14.02;;;6.40;;
55989;SDS011;41875;55.806;38.082;2022-10-17T04:40:08;12.77;;;5.88;;
55989;SDS011;41875;55.806;38.082;2022-10-17T04:42:38;12.85;;;6.15;;
55989;SDS011;41875;55.806;38.082;2022-10-17T04:45:08;11.75;;;5.72;;
55989;SDS011;41875;55.806;38.082;2022-10-17T04:47:39;14.60;;;5.90;;
55989;SDS011;41875;55.806;38.082;2022-10-17T04:50:07;10.85;;;5.88;;
55989;SDS011;41875;55.806;38.082;2022-10-17T04:52:40;9.57;;;5.32;;
55989;SDS011;41875;55.806;38.082;2022-10-17T04:55:08;14.63;;;5.75;;
55989;SDS011;41875;55.806;38.082;2022-10-17T04:57:37;11.55;;;5.60;;
55989;SDS011;41875;55.806;38.082;2022-10-17T05:00:18;12.30;;;6.55;;
55989;SDS011;41875;55.806;38.082;2022-10-17T05:03:04;13.75;;;6.25;;
55989;SDS011;41875;55.806;38.082;2022-10-17T05:05:35;13.90;;;5.88;;
55989;SDS011;41875;55.806;38.082;2022-10-17T05:08:09;14.65;;;6.00;;
55989;SDS011;41875;55.806;38.082;2022-10-17T05:10:39;14.88;;;6.80;;
55989;SDS011;41875;55.806;38.082;2022-10-17T05:13:09;11.40;;;5.32;;
55989;SDS011;41875;55.806;38.082;2022-10-17T05:15:39;11.32;;;5.72;;
55989;SDS011;41875;55.806;38.082;2022-10-17T05:18:07;12.88;;;6.22;;
55989;SDS011;41875;55.806;38.082;2022-10-17T05:23:05;13.02;;;5.40;;
55989;SDS011;41875;55.806;38.082;2022-10-17T05:25:40;13.77;;;5.82;;
55989;SDS011;41875;55.806;38.082;2022-10-17T05:28:08;16.25;;;6.40;;
55989;SDS011;41875;55.806;38.082;2022-10-17T05:30:39;13.48;;;6.20;;
55989;SDS011;41875;55.806;38.082;2022-10-17T05:33:08;11.02;;;5.53;;
55989;SDS011;41875;55.806;38.082;2022-10-17T05:35:38;13.68;;;5.43;;
55989;SDS011;41875;55.806;38.082;2022-10-17T05:38:07;13.10;;;5.97;;
55989;SDS011;41875;55.806;38.082;2022-10-17T05:40:39;13.25;;;6.00;;
55989;SDS011;41875;55.806;38.082;2022-10-17T05:43:08;12.65;;;5.82;;
55989;SDS011;41875;55.806;38.082;2022-10-17T05:45:36;11.48;;;5.10;;
55989;SDS011;41875;55.806;38.082;2022-10-17T05:48:08;17.90;;;5.60;;
55989;SDS011;41875;55.806;38.082;2022-10-17T05:50:37;12.13;;;5.18;;
55989;SDS011;41875;55.806;38.082;2022-10-17T05:53:13;12.20;;;5.35;;
55989;SDS011;41875;55.806;38.082;2022-10-17T05:55:55;12.70;;;5.47;;
55989;SDS011;41875;55.806;38.082;2022-10-17T05:58:29;15.52;;;5.38;;
55989;SDS011;41875;55.806;38.082;2022-10-17T06:01:27;10.77;;;4.68;;
55989;SDS011;41875;55.806;38.082;2022-10-17T06:03:56;11.90;;;5.18;;
55989;SDS011;41875;55.806;38.082;2022-10-17T06:06:25;12.43;;;5.10;;
55989;SDS011;41875;55.806;38.082;2022-10-17T06:08:54;13.25;;;5.32;;
55989;SDS011;41875;55.806;38.082;2022-10-17T06:11:31;13.80;;;5.25;;
55989;SDS011;41875;55.806;38.082;2022-10-17T06:14:00;10.93;;;5.00;;
55989;SDS011;41875;55.806;38.082;2022-10-17T06:16:31;12.82;;;5.70;;
55989;SDS011;41875;55.806;38.082;2022-10-17T06:19:00;13.05;;;4.90;;
55989;SDS011;41875;55.806;38.082;2022-10-17T06:21:28;15.68;;;5.82;;
55989;SDS011;41875;55.806;38.082;2022-10-17T06:24:06;13.30;;;4.68;;
55989;SDS011;41875;55.806;38.082;2022-10-17T06:26:38;13.25;;;5.10;;
55989;SDS011;41875;55.806;38.082;2022-10-17T06:29:11;11.68;;;5.00;;
55989;SDS011;41875;55.806;38.082;2022-10-17T06:31:49;15.23;;;5.43;;
55989;SDS011;41875;55.806;38.082;2022-10-17T06:34:29;12.43;;;4.97;;
55989;SDS011;41875;55.806;38.082;2022-10-17T06:37:02;12.95;;;5.28;;
55989;SDS011;41875;55.806;38.082;2022-10-17T06:39:33;12.95;;;5.72;;
55989;SDS011;41875;55.806;38.082;2022-10-17T06:42:10;14.50;;;5.22;;
55989;SDS011;41875;55.806;38.082;2022-10-17T06:45:06;10.73;;;5.10;;
55989;SDS011;41875;55.806;38.082;2022-10-17T06:48:01;12.85;;;5.25;;
55989;SDS011;41875;55.806;38.082;2022-10-17T06:50:42;12.88;;;5.38;;
55989;SDS011;41875;55.806;38.082;2022-10-17T06:53:22;11.77;;;4.82;;
55989;SDS011;41875;55.806;38.082;2022-10-17T06:56:28;14.98;;;5.20;;
55989;SDS011;41875;55.806;38.082;2022-10-17T06:59:17;13.43;;;5.00;;
55989;SDS011;41875;55.806;38.082;2022-10-17T07:01:59;12.73;;;4.72;;
55989;SDS011;41875;55.806;38.082;2022-10-17T07:04:29;12.65;;;5.10;;
55989;SDS011;41875;55.806;38.082;2022-10-17T07:06:57;11.55;;;5.68;;
55989;SDS011;41875;55.806;38.082;2022-10-17T07:09:31;15.73;;;8.20;;
55989;SDS011;41875;55.806;38.082;2022-10-17T07:14:29;14.23;;;5.22;;
55989;SDS011;41875;55.806;38.082;2022-10-17T07:16:58;14.18;;;5.40;;
55989;SDS011;41875;55.806;38.082;2022-10-17T07:19:30;15.55;;;4.95;;
55989;SDS011;41875;55.806;38.082;2022-10-17T07:21:59;13.75;;;5.50;;
55989;SDS011;41875;55.806;38.082;2022-10-17T07:24:28;13.35;;;5.15;;
55989;SDS011;41875;55.806;38.082;2022-10-17T07:27:06;13.13;;;5.00;;
55989;SDS011;41875;55.806;38.082;2022-10-17T07:29:36;15.13;;;4.72;;
55989;SDS011;41875;55.806;38.082;2022-10-17T07:32:17;12.90;;;5.45;;
55989;SDS011;41875;55.806;38.082;2022-10-17T07:34:46;13.18;;;5.15;;
55989;SDS011;41875;55.806;38.082;2022-10-17T07:37:15;13.60;;;5.68;;
55989;SDS011;41875;55.806;38.082;2022-10-17T07:39:50;15.07;;;4.75;;
55989;SDS011;41875;55.806;38.082;2022-10-17T07:42:19;16.73;;;6.22;;
55989;SDS011;41875;55.806;38.082;2022-10-17T07:44:50;10.35;;;4.60;;
55989;SDS011;41875;55.806;38.082;2022-10-17T07:47:19;14.70;;;8.48;;
55989;SDS011;41875;55.806;38.082;2022-10-17T07:49:48;11.68;;;4.53;;
55989;SDS011;41875;55.806;38.082;2022-10-17T07:52:17;11.80;;;4.82;;
55989;SDS011;41875;55.806;38.082;2022-10-17T07:54:46;12.60;;;4.82;;
55989;SDS011;41875;55.806;38.082;2022-10-17T07:57:14;12.38;;;5.28;;
55989;SDS011;41875;55.806;38.082;2022-10-17T07:59:42;19.45;;;6.07;;
55989;SDS011;41875;55.806;38.082;2022-10-17T08:04:45;13.43;;;5.38;;
55989;SDS011;41875;55.806;38.082;2022-10-17T08:07:14;15.50;;;5.53;;
55989;SDS011;41875;55.806;38.082;2022-10-17T08:09:52;12.82;;;5.25;;
55989;SDS011;41875;55.806;38.082;2022-10-17T08:12:24;15.88;;;5.63;;
55989;SDS011;41875;55.806;38.082;2022-10-17T08:14:53;13.48;;;5.40;;
55989;SDS011;41875;55.806;38.082;2022-10-17T08:17:23;13.88;;;4.90;;
55989;SDS011;41875;55.806;38.082;2022-10-17T08:19:51;14.50;;;5.63;;
55989;SDS011;41875;55.806;38.082;2022-10-17T08:22:20;12.23;;;5.00;;
55989;SDS011;41875;55.806;38.082;2022-10-17T08:24:49;16.42;;;5.65;;
55989;SDS011;41875;55.806;38.082;2022-10-17T08:27:17;17.55;;;6.05;;
55989;SDS011;41875;55.806;38.082;2022-10-17T08:29:50;14.15;;;5.25;;
55989;SDS011;41875;55.806;38.082;2022-10-17T08:32:20;13.95;;;5.80;;
55989;SDS011;41875;55.806;38.082;2022-10-17T08:34:52;13.70;;;5.45;;
55989;SDS011;41875;55.806;38.082;2022-10-17T08:37:21;11.02;;;5.30;;
55989;SDS011;41875;55.806;38.082;2022-10-17T08:42:30;12.02;;;5.80;;
55989;SDS011;41875;55.806;38.082;2022-10-17T08:45:10;11.68;;;5.88;;
55989;SDS011;41875;55.806;38.082;2022-10-17T08:47:44;13.73;;;6.65;;
55989;SDS011;41875;55.806;38.082;2022-10-17T08:50:17;13.05;;;6.32;;
55989;SDS011;41875;55.806;38.082;2022-10-17T08:52:54;17.10;;;6.68;;
55989;SDS011;41875;55.806;38.082;2022-10-17T08:55:28;13.30;;;6.75;;
55989;SDS011;41875;55.806;38.082;2022-10-17T08:58:00;17.38;;;6.13;;
55989;SDS011;41875;55.806;38.082;2022-10-17T09:00:29;15.27;;;7.22;;
55989;SDS011;41875;55.806;38.082;2022-10-17T09:03:05;17.15;;;7.65;;
55989;SDS011;41875;55.806;38.082;2022-10-17T09:05:47;15.73;;;7.20;;
55989;SDS011;41875;55.806;38.082;2022-10-17T09:08:23;18.45;;;7.95;;
55989;SDS011;41875;55.806;38.082;2022-10-17T09:11:02;20.77;;;7.05;;
55989;SDS011;41875;55.806;38.082;2022-10-17T09:13:47;20.55;;;7.93;;
55989;SDS011;41875;55.806;38.082;2022-10-17T09:19:22;14.17;;;5.77;;
55989;SDS011;41875;55.806;38.082;2022-10-17T09:21:57;17.85;;;7.22;;
55989;SDS011;41875;55.806;38.082;2022-10-17T09:24:31;12.77;;;6.38;;
55989;SDS011;41875;55.806;38.082;2022-10-17T09:29:42;19.60;;;6.60;;
55989;SDS011;41875;55.806;38.082;2022-10-17T09:32:16;20.73;;;6.78;;
55989;SDS011;41875;55.806;38.082;2022-10-17T09:34:49;15.80;;;6.78;;
55989;SDS011;41875;55.806;38.082;2022-10-17T09:37:21;19.20;;;7.50;;
55989;SDS011;41875;55.806;38.082;2022-10-17T09:39:56;18.15;;;7.20;;
55989;SDS011;41875;55.806;38.082;2022-10-17T09:42:25;18.27;;;6.82;;
55989;SDS011;41875;55.806;38.082;2022-10-17T09:44:56;18.77;;;6.32;;
55989;SDS011;41875;55.806;38.082;2022-10-17T09:47:39;16.27;;;6.82;;
55989;SDS011;41875;55.806;38.082;2022-10-17T09:50:14;18.77;;;7.07;;
55989;SDS011;41875;55.806;38.082;2022-10-17T09:52:50;16.80;;;7.60;;
55989;SDS011;41875;55.806;38.082;2022-10-17T09:55:21;19.38;;;8.15;;
55989;SDS011;41875;55.806;38.082;2022-10-17T09:57:59;21.63;;;8.77;;
55989;SDS011;41875;55.806;38.082;2022-10-17T10:00:29;18.13;;;8.27;;
55989;SDS011;41875;55.806;38.082;2022-10-17T10:03:15;20.00;;;9.05;;
55989;SDS011;41875;55.806;38.082;2022-10-17T10:05:59;20.13;;;8.43;;
55989;SDS011;41875;55.806;38.082;2022-10-17T10:08:31;16.13;;;7.07;;
55989;SDS011;41875;55.806;38.082;2022-10-17T10:11:02;17.17;;;6.70;;
55989;SDS011;41875;55.806;38.082;2022-10-17T10:13:35;15.57;;;6.93;;
55989;SDS011;41875;55.806;38.082;2022-10-17T10:16:13;17.48;;;7.88;;
55989;SDS011;41875;55.806;38.082;2022-10-17T10:21:18;18.88;;;7.22;;
55989;SDS011;41875;55.806;38.082;2022-10-17T10:24:09;16.33;;;7.28;;
55989;SDS011;41875;55.806;38.082;2022-10-17T10:26:41;18.30;;;9.20;;
55989;SDS011;41875;55.806;38.082;2022-10-17T10:29:24;19.05;;;8.40;;
55989;SDS011;41875;55.806;38.082;2022-10-17T10:31:58;18.73;;;7.82;;
55989;SDS011;41875;55.806;38.082;2022-10-17T10:34:36;18.88;;;7.50;;
55989;SDS011;41875;55.806;38.082;2022-10-17T10:37:15;17.30;;;8.38;;
55989;SDS011;41875;55.806;38.082;2022-10-17T10:39:48;22.33;;;8.80;;
55989;SDS011;41875;55.806;38.082;2022-10-17T10:42:23;16.58;;;7.70;;
55989;SDS011;41875;55.806;38.082;2022-10-17T10:44:56;16.10;;;8.02;;
55989;SDS011;41875;55.806;38.082;2022-10-17T10:47:30;17.58;;;8.07;;
55989;SDS011;41875;55.806;38.082;2022-10-17T10:50:07;23.00;;;8.48;;
55989;SDS011;41875;55.806;38.082;2022-10-17T10:52:51;16.33;;;7.97;;
55989;SDS011;41875;55.806;38.082;2022-10-17T10:55:39;19.25;;;9.07;;
55989;SDS011;41875;55.806;38.082;2022-10-17T10:58:16;22.90;;;8.45;;
55989;SDS011;41875;55.806;38.082;2022-10-17T11:00:53;19.00;;;8.48;;
55989;SDS011;41875;55.806;38.082;2022-10-17T11:03:25;19.27;;;8.65;;
55989;SDS011;41875;55.806;38.082;2022-10-17T11:05:59;17.73;;;8.02;;
55989;SDS011;41875;55.806;38.082;2022-10-17T11:08:33;18.58;;;8.90;;
55989;SDS011;41875;55.806;38.082;2022-10-17T11:11:10;19.50;;;8.75;;
55989;SDS011;41875;55.806;38.082;2022-10-17T11:13:45;18.50;;;7.95;;
55989;SDS011;41875;55.806;38.082;2022-10-17T11:16:24;15.70;;;8.05;;
55989;SDS011;41875;55.806;38.082;2022-10-17T11:19:03;19.13;;;8.15;;
55989;SDS011;41875;55.806;38.082;2022-10-17T11:21:41;17.30;;;7.85;;
55989;SDS011;41875;55.806;38.082;2022-10-17T11:24:17;17.30;;;8.25;;
55989;SDS011;41875;55.806;38.082;2022-10-17T11:26:53;15.98;;;7.22;;
55989;SDS011;41875;55.806;38.082;2022-10-17T11:29:26;15.43;;;7.85;;
55989;SDS011;41875;55.806;38.082;2022-10-17T11:31:57;19.42;;;8.32;;
55989;SDS011;41875;55.806;38.082;2022-10-17T11:34:30;16.95;;;8.75;;
55989;SDS011;41875;55.806;38.082;2022-10-17T11:37:04;19.70;;;8.25;;
55989;SDS011;41875;55.806;38.082;2022-10-17T11:39:41;15.20;;;8.25;;
55989;SDS011;41875;55.806;38.082;2022-10-17T11:42:18;21.38;;;8.35;;
55989;SDS011;41875;55.806;38.082;2022-10-17T11:44:55;19.98;;;8.45;;
55989;SDS011;41875;55.806;38.082;2022-10-17T11:47:30;16.05;;;7.95;;
55989;SDS011;41875;55.806;38.082;2022-10-17T11:50:06;16.83;;;8.48;;
55989;SDS011;41875;55.806;38.082;2022-10-17T11:53:08;16.48;;;7.95;;
55989;SDS011;41875;55.806;38.082;2022-10-17T11:55:40;14.43;;;7.40;;
55989;SDS011;41875;55.806;38.082;2022-10-17T11:58:19;13.90;;;7.50;;
55989;SDS011;41875;55.806;38.082;2022-10-17T12:00:59;18.45;;;7.88;;
55989;SDS011;41875;55.806;38.082;2022-10-17T12:03:39;19.87;;;9.13;;
55989;SDS011;41875;55.806;38.082;2022-10-17T12:06:22;16.77;;;8.35;;
55989;SDS011;41875;55.806;38.082;2022-10-17T12:09:00;19.50;;;8.60;;
55989;SDS011;41875;55.806;38.082;2022-10-17T12:11:38;19.13;;;8.15;;
55989;SDS011;41875;55.806;38.082;2022-10-17T12:17:29;18.52;;;8.98;;
55989;SDS011;41875;55.806;38.082;2022-10-17T12:20:23;20.85;;;9.85;;
55989;SDS011;41875;55.806;38.082;2022-10-17T12:22:54;20.63;;;9.43;;
55989;SDS011;41875;55.806;38.082;2022-10-17T12:25:27;16.83;;;8.55;;
55989;SDS011;41875;55.806;38.082;2022-10-17T12:28:08;17.02;;;8.18;;
55989;SDS011;41875;55.806;38.082;2022-10-17T12:33:30;22.05;;;9.18;;
55989;SDS011;41875;55.806;38.082;2022-10-17T12:51:26;19.52;;;9.38;;
55989;SDS011;41875;55.806;38.082;2022-10-17T12:54:05;20.15;;;9.65;;
55989;SDS011;41875;55.806;38.082;2022-10-17T12:56:39;22.35;;;9.80;;
55989;SDS011;41875;55.806;38.082;2022-10-17T12:59:11;19.48;;;8.45;;
55989;SDS011;41875;55.806;38.082;2022-10-17T13:01:43;19.27;;;9.50;;
55989;SDS011;41875;55.806;38.082;2022-10-17T13:04:14;16.92;;;8.27;;
55989;SDS011;41875;55.806;38.082;2022-10-17T13:06:46;21.02;;;9.68;;
55989;SDS011;41875;55.806;38.082;2022-10-17T13:09:19;25.42;;;10.88;;
55989;SDS011;41875;55.806;38.082;2022-10-17T13:11:52;22.33;;;9.23;;
55989;SDS011;41875;55.806;38.082;2022-10-17T13:14:24;17.85;;;9.57;;
55989;SDS011;41875;55.806;38.082;2022-10-17T13:16:54;16.00;;;8.93;;
55989;SDS011;41875;55.806;38.082;2022-10-17T13:19:25;21.88;;;10.13;;
55989;SDS011;41875;55.806;38.082;2022-10-17T13:21:59;19.60;;;9.65;;
55989;SDS011;41875;55.806;38.082;2022-10-17T13:24:33;18.55;;;9.40;;
55989;SDS011;41875;55.806;38.082;2022-10-17T13:27:03;20.05;;;9.73;;
55989;SDS011;41875;55.806;38.082;2022-10-17T13:29:33;19.00;;;9.68;;
55989;SDS011;41875;55.806;38.082;2022-10-17T13:32:02;25.48;;;10.32;;
55989;SDS011;41875;55.806;38.082;2022-10-17T13:34:32;21.15;;;9.88;;
55989;SDS011;41875;55.806;38.082;2022-10-17T13:37:04;19.20;;;9.43;;
55989;SDS011;41875;55.806;38.082;2022-10-17T13:39:38;19.30;;;9.85;;
55989;SDS011;41875;55.806;38.082;2022-10-17T13:42:21;19.67;;;10.10;;
55989;SDS011;41875;55.806;38.082;2022-10-17T13:44:53;24.30;;;10.00;;
55989;SDS011;41875;55.806;38.082;2022-10-17T13:47:23;21.88;;;9.70;;
55989;SDS011;41875;55.806;38.082;2022-10-17T13:49:55;21.88;;;9.48;;
55989;SDS011;41875;55.806;38.082;2022-10-17T13:52:26;19.23;;;9.73;;
55989;SDS011;41875;55.806;38.082;2022-10-17T13:55:05;24.90;;;10.48;;
55989;SDS011;41875;55.806;38.082;2022-10-17T13:57:40;22.10;;;10.85;;
55989;SDS011;41875;55.806;38.082;2022-10-17T14:00:10;20.63;;;9.95;;
55989;SDS011;41875;55.806;38.082;2022-10-17T14:02:45;20.13;;;9.90;;
55989;SDS011;41875;55.806;38.082;2022-10-17T14:05:16;28.65;;;9.98;;
55989;SDS011;41875;55.806;38.082;2022-10-17T14:07:50;19.05;;;9.38;;
55989;SDS011;41875;55.806;38.082;2022-10-17T14:10:39;21.75;;;9.75;;
55989;SDS011;41875;55.806;38.082;2022-10-17T14:13:18;21.45;;;10.45;;
55989;SDS011;41875;55.806;38.082;2022-10-17T14:15:49;22.88;;;9.70;;
55989;SDS011;41875;55.806;38.082;2022-10-17T14:18:20;21.45;;;9.77;;
55989;SDS011;41875;55.806;38.082;2022-10-17T14:20:51;22.63;;;10.88;;
55989;SDS011;41875;55.806;38.082;2022-10-17T14:23:43;22.40;;;9.93;;
55989;SDS011;41875;55.806;38.082;2022-10-17T14:26:12;22.15;;;10.57;;
55989;SDS011;41875;55.806;38.082;2022-10-17T14:28:44;20.17;;;10.25;;
55989;SDS011;41875;55.806;38.082;2022-10-17T14:31:25;20.25;;;10.30;;
55989;SDS011;41875;55.806;38.082;2022-10-17T14:33:57;18.70;;;8.50;;
55989;SDS011;41875;55.806;38.082;2022-10-17T14:36:29;19.83;;;8.93;;
55989;SDS011;41875;55.806;38.082;2022-10-17T14:39:01;21.52;;;10.25;;
55989;SDS011;41875;55.806;38.082;2022-10-17T14:41:31;20.55;;;10.05;;
55989;SDS011;41875;55.806;38.082;2022-10-17T14:44:15;23.90;;;9.93;;
55989;SDS011;41875;55.806;38.082;2022-10-17T14:46:48;20.73;;;9.32;;
55989;SDS011;41875;55.806;38.082;2022-10-17T14:49:21;23.50;;;9.60;;
55989;SDS011;41875;55.806;38.082;2022-10-17T14:52:19;22.08;;;10.27;;
55989;SDS011;41875;55.806;38.082;2022-10-17T14:54:54;23.83;;;10.70;;
55989;SDS011;41875;55.806;38.082;2022-10-17T14:57:25;23.80;;;10.27;;
55989;SDS011;41875;55.806;38.082;2022-10-17T14:59:56;27.90;;;10.80;;
55989;SDS011;41875;55.806;38.082;2022-10-17T15:02:27;28.30;;;10.65;;
55989;SDS011;41875;55.806;38.082;2022-10-17T15:04:57;19.42;;;10.23;;
55989;SDS011;41875;55.806;38.082;2022-10-17T15:07:25;23.48;;;10.10;;
55989;SDS011;41875;55.806;38.082;2022-10-17T15:09:56;23.45;;;11.00;;
55989;SDS011;41875;55.806;38.082;2022-10-17T15:12:25;21.88;;;10.65;;
55989;SDS011;41875;55.806;38.082;2022-10-17T15:14:54;22.50;;;10.10;;
55989;SDS011;41875;55.806;38.082;2022-10-17T15:17:23;25.35;;;9.38;;
55989;SDS011;41875;55.806;38.082;2022-10-17T15:19:53;23.73;;;10.32;;
55989;SDS011;41875;55.806;38.082;2022-10-17T15:22:22;22.15;;;10.20;;
55989;SDS011;41875;55.806;38.082;2022-10-17T15:24:51;25.80;;;10.13;;
55989;SDS011;41875;55.806;38.082;2022-10-17T15:27:22;25.92;;;10.13;;
55989;SDS011;41875;55.806;38.082;2022-10-17T15:29:52;23.45;;;9.90;;
55989;SDS011;41875;55.806;38.082;2022-10-17T15:32:21;24.40;;;11.05;;
55989;SDS011;41875;55.806;38.082;2022-10-17T15:34:50;23.05;;;10.18;;
55989;SDS011;41875;55.806;38.082;2022-10-17T15:37:19;26.80;;;10.30;;
55989;SDS011;41875;55.806;38.082;2022-10-17T15:39:49;21.17;;;9.80;;
55989;SDS011;41875;55.806;38.082;2022-10-17T15:42:22;22.77;;;10.70;;
55989;SDS011;41875;55.806;38.082;2022-10-17T15:44:55;23.55;;;10.55;;